Ironsides, Maryland
Current Conditions -  °F | °C
As of 3:56 AM on Monday 20 Oct 2014 (Local Time) from KNYG Reporting Station
Clear Clear  
Wind Chill: 37°   Ceiling: Unl
Heat Index: 42°   Visibility: 10mi
Dew Point: 39°   Wind: 9mph
Humidity: 89%   Direction: 300°WNW
Pressure: 30.13"   Gusts: NA
Location:  38.49°N, 77.16°W
Report Text: KNYG 200756Z AUTO 30008KT 10SM CLR 06/04 A3013 RMK AO2 SLP202 T00560039 $
Loading
Personal Weather Stations






























Interactive Weather Map
Tropical Storm Tracking
New forecast layout! Learn more

10-Day Weather Forecast

Advertisements
Track Severe Weather on mobile